sensor_id;sensor_type;location;lat;lon;timestamp;pressure;altitude;pressure_sealevel;temperature;humidity
50636;BME280;36598;46.054;11.130;2023-04-01T00:01:55;98112.56;;;9.86;81.89
50636;BME280;36598;46.054;11.130;2023-04-01T00:04:21;98114.69;;;9.95;82.39
50636;BME280;36598;46.054;11.130;2023-04-01T00:06:47;98116.00;;;9.90;82.46
50636;BME280;36598;46.054;11.130;2023-04-01T00:09:16;98125.00;;;9.78;82.36
50636;BME280;36598;46.054;11.130;2023-04-01T00:11:42;98111.19;;;9.78;83.41
50636;BME280;36598;46.054;11.130;2023-04-01T00:14:07;98116.22;;;9.96;82.06
50636;BME280;36598;46.054;11.130;2023-04-01T00:16:32;98113.94;;;9.78;82.63
50636;BME280;36598;46.054;11.130;2023-04-01T00:18:58;98117.28;;;9.57;83.85
50636;BME280;36598;46.054;11.130;2023-04-01T00:21:23;98110.47;;;9.28;85.42
50636;BME280;36598;46.054;11.130;2023-04-01T00:23:49;98112.53;;;9.41;84.33
50636;BME280;36598;46.054;11.130;2023-04-01T00:26:14;98110.69;;;9.21;84.67
50636;BME280;36598;46.054;11.130;2023-04-01T00:28:43;98113.94;;;9.16;84.31
50636;BME280;36598;46.054;11.130;2023-04-01T00:31:09;98122.22;;;9.33;83.48
50636;BME280;36598;46.054;11.130;2023-04-01T00:33:35;98122.66;;;9.47;82.72
50636;BME280;36598;46.054;11.130;2023-04-01T00:36:10;98118.59;;;9.52;82.70
50636;BME280;36598;46.054;11.130;2023-04-01T00:38:36;98116.06;;;9.58;82.21
50636;BME280;36598;46.054;11.130;2023-04-01T00:41:02;98113.94;;;9.78;80.95
50636;BME280;36598;46.054;11.130;2023-04-01T00:43:27;98107.78;;;9.58;82.02
50636;BME280;36598;46.054;11.130;2023-04-01T00:45:53;98114.22;;;9.67;81.41
50636;BME280;36598;46.054;11.130;2023-04-01T00:48:39;98118.13;;;9.70;80.75
50636;BME280;36598;46.054;11.130;2023-04-01T00:51:04;98113.75;;;9.23;83.13
50636;BME280;36598;46.054;11.130;2023-04-01T00:53:31;98121.88;;;9.47;81.64
50636;BME280;36598;46.054;11.130;2023-04-01T00:56:09;98121.88;;;9.31;81.81
50636;BME280;36598;46.054;11.130;2023-04-01T00:58:36;98113.25;;;9.28;82.58
50636;BME280;36598;46.054;11.130;2023-04-01T01:01:03;98108.16;;;9.11;82.67
50636;BME280;36598;46.054;11.130;2023-04-01T01:03:29;98122.03;;;9.07;83.80
50636;BME280;36598;46.054;11.130;2023-04-01T01:08:35;98132.41;;;9.36;81.69
50636;BME280;36598;46.054;11.130;2023-04-01T01:11:05;98134.75;;;9.21;81.80
50636;BME280;36598;46.054;11.130;2023-04-01T01:18:44;98138.25;;;9.05;82.92
50636;BME280;36598;46.054;11.130;2023-04-01T01:21:30;98140.50;;;9.10;82.78
50636;BME280;36598;46.054;11.130;2023-04-01T01:26:31;98130.69;;;9.09;82.24
50636;BME280;36598;46.054;11.130;2023-04-01T01:31:30;98134.47;;;9.15;81.52
50636;BME280;36598;46.054;11.130;2023-04-01T01:36:42;98133.34;;;9.13;81.52
50636;BME280;36598;46.054;11.130;2023-04-01T01:39:10;98135.06;;;9.23;81.45
50636;BME280;36598;46.054;11.130;2023-04-01T01:41:37;98136.34;;;9.02;81.57
50636;BME280;36598;46.054;11.130;2023-04-01T01:44:04;98131.19;;;9.20;80.76
50636;BME280;36598;46.054;11.130;2023-04-01T01:46:32;98128.78;;;9.22;80.82
50636;BME280;36598;46.054;11.130;2023-04-01T01:48:57;98125.66;;;9.20;80.44
50636;BME280;36598;46.054;11.130;2023-04-01T01:51:24;98124.56;;;9.34;78.96
50636;BME280;36598;46.054;11.130;2023-04-01T01:53:51;98127.72;;;9.33;79.43
50636;BME280;36598;46.054;11.130;2023-04-01T01:56:17;98130.69;;;9.25;78.47
50636;BME280;36598;46.054;11.130;2023-04-01T01:58:47;98127.72;;;8.84;79.81
50636;BME280;36598;46.054;11.130;2023-04-01T02:01:16;98122.91;;;9.04;79.08
50636;BME280;36598;46.054;11.130;2023-04-01T02:03:42;98118.50;;;9.07;77.94
50636;BME280;36598;46.054;11.130;2023-04-01T02:06:10;98122.06;;;8.91;79.04
50636;BME280;36598;46.054;11.130;2023-04-01T02:08:39;98124.13;;;8.87;78.25
50636;BME280;36598;46.054;11.130;2023-04-01T02:11:06;98114.41;;;8.62;78.13
50636;BME280;36598;46.054;11.130;2023-04-01T02:16:17;98129.59;;;8.70;77.97
50636;BME280;36598;46.054;11.130;2023-04-01T02:18:43;98130.00;;;8.69;77.33
50636;BME280;36598;46.054;11.130;2023-04-01T02:21:10;98138.09;;;8.60;77.66
50636;BME280;36598;46.054;11.130;2023-04-01T02:23:37;98134.13;;;8.61;77.07
50636;BME280;36598;46.054;11.130;2023-04-01T02:26:04;98135.13;;;8.70;77.30
50636;BME280;36598;46.054;11.130;2023-04-01T02:28:30;98136.41;;;8.66;76.63
50636;BME280;36598;46.054;11.130;2023-04-01T02:30:56;98129.91;;;8.56;77.44
50636;BME280;36598;46.054;11.130;2023-04-01T02:33:23;98137.00;;;8.73;77.00
50636;BME280;36598;46.054;11.130;2023-04-01T02:35:49;98137.38;;;8.75;76.97
50636;BME280;36598;46.054;11.130;2023-04-01T02:38:14;98139.75;;;8.73;76.37
50636;BME280;36598;46.054;11.130;2023-04-01T02:40:50;98145.84;;;8.48;77.37
50636;BME280;36598;46.054;11.130;2023-04-01T02:43:16;98137.19;;;8.66;75.91
50636;BME280;36598;46.054;11.130;2023-04-01T02:45:42;98141.25;;;8.42;77.13
50636;BME280;36598;46.054;11.130;2023-04-01T02:48:07;98142.44;;;8.41;76.92
50636;BME280;36598;46.054;11.130;2023-04-01T02:50:32;98142.97;;;8.12;77.94
50636;BME280;36598;46.054;11.130;2023-04-01T02:52:58;98149.78;;;8.27;78.01
50636;BME280;36598;46.054;11.130;2023-04-01T02:55:23;98152.25;;;8.42;76.71
50636;BME280;36598;46.054;11.130;2023-04-01T02:57:48;98155.94;;;8.35;76.60
50636;BME280;36598;46.054;11.130;2023-04-01T03:00:14;98148.84;;;7.94;78.26
50636;BME280;36598;46.054;11.130;2023-04-01T03:02:39;98152.22;;;7.82;79.35
50636;BME280;36598;46.054;11.130;2023-04-01T03:05:05;98158.88;;;8.04;77.73
50636;BME280;36598;46.054;11.130;2023-04-01T03:07:31;98161.44;;;8.15;77.71
50636;BME280;36598;46.054;11.130;2023-04-01T03:09:56;98167.63;;;7.99;78.71
50636;BME280;36598;46.054;11.130;2023-04-01T03:12:21;98169.50;;;8.06;77.81
50636;BME280;36598;46.054;11.130;2023-04-01T03:14:47;98180.72;;;8.15;77.49
50636;BME280;36598;46.054;11.130;2023-04-01T03:17:12;98171.63;;;8.18;77.60
50636;BME280;36598;46.054;11.130;2023-04-01T03:19:37;98173.38;;;8.28;76.96
50636;BME280;36598;46.054;11.130;2023-04-01T03:22:02;98173.25;;;8.36;76.21
50636;BME280;36598;46.054;11.130;2023-04-01T03:24:28;98180.38;;;8.33;76.52
50636;BME280;36598;46.054;11.130;2023-04-01T03:26:53;98187.75;;;7.96;77.85
50636;BME280;36598;46.054;11.130;2023-04-01T03:29:18;98191.03;;;8.11;77.37
50636;BME280;36598;46.054;11.130;2023-04-01T03:31:44;98186.91;;;7.99;77.57
50636;BME280;36598;46.054;11.130;2023-04-01T03:34:09;98185.69;;;7.81;78.46
50636;BME280;36598;46.054;11.130;2023-04-01T03:36:35;98190.59;;;7.69;79.64
50636;BME280;36598;46.054;11.130;2023-04-01T03:39:00;98195.13;;;8.03;77.56
50636;BME280;36598;46.054;11.130;2023-04-01T03:41:25;98195.16;;;7.80;78.73
50636;BME280;36598;46.054;11.130;2023-04-01T03:43:51;98202.00;;;7.91;78.17
50636;BME280;36598;46.054;11.130;2023-04-01T03:46:18;98198.03;;;7.72;79.00
50636;BME280;36598;46.054;11.130;2023-04-01T03:48:43;98207.94;;;7.90;78.22
50636;BME280;36598;46.054;11.130;2023-04-01T03:51:09;98207.06;;;7.73;78.83
50636;BME280;36598;46.054;11.130;2023-04-01T03:53:34;98206.19;;;7.99;78.15
50636;BME280;36598;46.054;11.130;2023-04-01T03:56:03;98213.13;;;8.08;76.04
50636;BME280;36598;46.054;11.130;2023-04-01T03:58:28;98210.09;;;8.02;76.50
50636;BME280;36598;46.054;11.130;2023-04-01T04:00:54;98211.00;;;7.95;76.29
50636;BME280;36598;46.054;11.130;2023-04-01T04:03:20;98212.09;;;7.78;77.03
50636;BME280;36598;46.054;11.130;2023-04-01T04:05:46;98212.38;;;7.60;78.14
50636;BME280;36598;46.054;11.130;2023-04-01T04:08:15;98206.63;;;7.74;76.99
50636;BME280;36598;46.054;11.130;2023-04-01T04:10:41;98212.63;;;7.93;76.31
50636;BME280;36598;46.054;11.130;2023-04-01T04:13:06;98204.72;;;7.95;76.45
50636;BME280;36598;46.054;11.130;2023-04-01T04:15:32;98205.38;;;7.79;77.00
50636;BME280;36598;46.054;11.130;2023-04-01T04:18:01;98211.31;;;7.77;77.40
50636;BME280;36598;46.054;11.130;2023-04-01T04:20:26;98210.41;;;7.84;77.55
50636;BME280;36598;46.054;11.130;2023-04-01T04:22:52;98212.88;;;7.55;78.64
50636;BME280;36598;46.054;11.130;2023-04-01T04:25:17;98206.22;;;7.52;78.76
50636;BME280;36598;46.054;11.130;2023-04-01T04:27:42;98215.84;;;7.88;77.40
50636;BME280;36598;46.054;11.130;2023-04-01T04:30:08;98225.31;;;7.87;77.45
50636;BME280;36598;46.054;11.130;2023-04-01T04:32:33;98223.41;;;7.60;78.38
50636;BME280;36598;46.054;11.130;2023-04-01T04:34:59;98227.69;;;7.38;78.81
50636;BME280;36598;46.054;11.130;2023-04-01T04:37:25;98237.16;;;7.37;79.25
50636;BME280;36598;46.054;11.130;2023-04-01T04:39:51;98233.75;;;7.52;79.21
50636;BME280;36598;46.054;11.130;2023-04-01T04:42:16;98235.47;;;7.66;78.37
50636;BME280;36598;46.054;11.130;2023-04-01T04:44:41;98241.25;;;7.75;77.32
50636;BME280;36598;46.054;11.130;2023-04-01T04:47:07;98245.00;;;7.85;76.64
50636;BME280;36598;46.054;11.130;2023-04-01T04:49:32;98231.19;;;7.65;77.66
50636;BME280;36598;46.054;11.130;2023-04-01T04:51:57;98238.47;;;7.52;78.41
50636;BME280;36598;46.054;11.130;2023-04-01T04:54:22;98243.88;;;7.59;77.48
50636;BME280;36598;46.054;11.130;2023-04-01T04:56:48;98246.00;;;7.48;77.83
50636;BME280;36598;46.054;11.130;2023-04-01T04:59:13;98250.16;;;7.60;77.33
50636;BME280;36598;46.054;11.130;2023-04-01T05:01:38;98260.63;;;7.68;76.68
50636;BME280;36598;46.054;11.130;2023-04-01T05:04:04;98253.56;;;7.67;77.02
50636;BME280;36598;46.054;11.130;2023-04-01T05:06:29;98250.38;;;7.45;78.48
50636;BME280;36598;46.054;11.130;2023-04-01T05:08:56;98257.88;;;7.68;77.38
50636;BME280;36598;46.054;11.130;2023-04-01T05:11:21;98255.81;;;7.49;78.33
50636;BME280;36598;46.054;11.130;2023-04-01T05:13:47;98258.34;;;7.63;78.59
50636;BME280;36598;46.054;11.130;2023-04-01T05:16:16;98254.78;;;7.90;77.22
50636;BME280;36598;46.054;11.130;2023-04-01T05:18:42;98253.09;;;7.72;77.99
50636;BME280;36598;46.054;11.130;2023-04-01T05:21:08;98261.69;;;7.74;77.98
50636;BME280;36598;46.054;11.130;2023-04-01T05:23:34;98261.25;;;7.80;77.60
50636;BME280;36598;46.054;11.130;2023-04-01T05:26:06;98263.31;;;7.95;77.51
50636;BME280;36598;46.054;11.130;2023-04-01T05:28:31;98270.75;;;7.98;77.25
50636;BME280;36598;46.054;11.130;2023-04-01T05:30:58;98270.25;;;8.27;76.53
50636;BME280;36598;46.054;11.130;2023-04-01T05:33:23;98271.00;;;8.51;75.27
50636;BME280;36598;46.054;11.130;2023-04-01T05:35:49;98265.63;;;8.64;73.83
50636;BME280;36598;46.054;11.130;2023-04-01T05:38:14;98265.38;;;8.78;72.96
50636;BME280;36598;46.054;11.130;2023-04-01T05:40:39;98271.78;;;8.71;72.78
50636;BME280;36598;46.054;11.130;2023-04-01T05:43:04;98280.41;;;8.73;70.53
50636;BME280;36598;46.054;11.130;2023-04-01T05:45:30;98276.72;;;8.60;71.70
50636;BME280;36598;46.054;11.130;2023-04-01T05:47:55;98279.28;;;8.91;70.61
50636;BME280;36598;46.054;11.130;2023-04-01T05:50:20;98274.31;;;9.02;70.70
50636;BME280;36598;46.054;11.130;2023-04-01T05:52:46;98273.09;;;9.03;69.64
50636;BME280;36598;46.054;11.130;2023-04-01T05:55:11;98275.66;;;9.14;69.36
50636;BME280;36598;46.054;11.130;2023-04-01T05:57:36;98275.66;;;9.14;69.24
50636;BME280;36598;46.054;11.130;2023-04-01T06:00:02;98277.16;;;9.35;69.42
50636;BME280;36598;46.054;11.130;2023-04-01T06:02:28;98282.69;;;9.35;68.95
50636;BME280;36598;46.054;11.130;2023-04-01T06:04:54;98267.34;;;9.50;69.27
50636;BME280;36598;46.054;11.130;2023-04-01T06:07:26;98273.72;;;9.63;67.53
50636;BME280;36598;46.054;11.130;2023-04-01T06:09:52;98280.63;;;9.71;67.68
50636;BME280;36598;46.054;11.130;2023-04-01T06:15:23;98287.72;;;9.89;67.47
50636;BME280;36598;46.054;11.130;2023-04-01T06:30:38;98303.91;;;10.52;65.46
50636;BME280;36598;46.054;11.130;2023-04-01T06:35:35;98300.25;;;10.26;66.24
50636;BME280;36598;46.054;11.130;2023-04-01T06:40:49;98309.19;;;11.17;63.85
50636;BME280;36598;46.054;11.130;2023-04-01T06:48:48;98317.00;;;14.73;53.03
50636;BME280;36598;46.054;11.130;2023-04-01T06:51:24;98316.69;;;14.81;52.43
50636;BME280;36598;46.054;11.130;2023-04-01T06:53:54;98317.41;;;16.36;47.74
50636;BME280;36598;46.054;11.130;2023-04-01T06:56:24;98302.41;;;17.40;45.06
50636;BME280;36598;46.054;11.130;2023-04-01T07:01:25;98291.75;;;20.06;39.33
50636;BME280;36598;46.054;11.130;2023-04-01T07:09:09;98277.44;;;26.18;28.79
50636;BME280;36598;46.054;11.130;2023-04-01T07:11:37;98283.06;;;25.79;29.28
50636;BME280;36598;46.054;11.130;2023-04-01T07:16:54;98290.75;;;26.77;27.49
50636;BME280;36598;46.054;11.130;2023-04-01T07:21:52;98291.75;;;23.15;31.99
50636;BME280;36598;46.054;11.130;2023-04-01T07:24:32;98293.50;;;21.85;34.19
50636;BME280;36598;46.054;11.130;2023-04-01T07:26:58;98283.66;;;23.36;34.13
50636;BME280;36598;46.054;11.130;2023-04-01T07:29:25;98287.72;;;23.76;31.98
50636;BME280;36598;46.054;11.130;2023-04-01T07:47:08;98265.34;;;27.60;25.60
50636;BME280;36598;46.054;11.130;2023-04-01T07:49:58;98263.69;;;24.81;29.34
50636;BME280;36598;46.054;11.130;2023-04-01T08:05:14;98271.97;;;17.92;42.44
50636;BME280;36598;46.054;11.130;2023-04-01T08:15:25;98262.22;;;15.83;46.68
50636;BME280;36598;46.054;11.130;2023-04-01T08:25:33;98255.41;;;16.70;45.32
50636;BME280;36598;46.054;11.130;2023-04-01T08:28:03;98255.81;;;16.39;45.96
50636;BME280;36598;46.054;11.130;2023-04-01T08:33:17;98252.28;;;17.07;44.26
50636;BME280;36598;46.054;11.130;2023-04-01T08:38:18;98246.97;;;18.70;41.67
50636;BME280;36598;46.054;11.130;2023-04-01T08:43:23;98242.34;;;21.36;35.67
50636;BME280;36598;46.054;11.130;2023-04-01T08:58:28;98224.22;;;24.69;29.88
50636;BME280;36598;46.054;11.130;2023-04-01T09:09:20;98228.06;;;27.64;25.87
50636;BME280;36598;46.054;11.130;2023-04-01T09:19:30;98216.13;;;24.60;29.26
50636;BME280;36598;46.054;11.130;2023-04-01T09:22:05;98202.66;;;24.85;29.22
50636;BME280;36598;46.054;11.130;2023-04-01T09:27:52;98200.13;;;22.91;31.83
50636;BME280;36598;46.054;11.130;2023-04-01T09:32:26;98196.84;;;23.72;30.99
50636;BME280;36598;46.054;11.130;2023-04-01T09:35:05;98194.47;;;23.82;31.15
50636;BME280;36598;46.054;11.130;2023-04-01T09:44:59;98179.88;;;23.78;31.06
50636;BME280;36598;46.054;11.130;2023-04-01T09:49:55;98161.91;;;24.18;30.27
50636;BME280;36598;46.054;11.130;2023-04-01T09:52:26;98167.50;;;23.81;30.73
50636;BME280;36598;46.054;11.130;2023-04-01T09:55:17;98155.63;;;23.33;30.38
50636;BME280;36598;46.054;11.130;2023-04-01T10:03:23;98149.28;;;22.97;32.85
50636;BME280;36598;46.054;11.130;2023-04-01T10:09:03;98145.56;;;22.78;32.50
50636;BME280;36598;46.054;11.130;2023-04-01T10:21:55;98140.25;;;21.52;34.84
50636;BME280;36598;46.054;11.130;2023-04-01T10:27:30;98129.38;;;21.90;34.30
50636;BME280;36598;46.054;11.130;2023-04-01T10:39:08;98112.41;;;21.32;34.03
50636;BME280;36598;46.054;11.130;2023-04-01T10:41:16;98109.31;;;21.41;34.43
